Time;durP1;ratioP1;P1;durP2;ratioP2;P2;SDS_P1;SDS_P2;PMS_P1;PMS_P2;Temp;Humidity;BMP_temperature;BMP_pressure;BME280_temperature;BME280_humidity;BME280_pressure;Samples;Min_cycle;Max_cycle;Signal;HPM_P1;HPM_P2
2021/08/23 00:01:39;;;;;;;15.35;11.53;;;23.40;82.30;;;;;;1893893;76;21027;-49
2021/08/23 00:04:09;;;;;;;14.15;10.63;;;23.40;82.20;;;;;;1893992;76;21030;-50
2021/08/23 00:06:38;;;;;;;14.63;11.38;;;23.30;82.40;;;;;;1893897;74;21054;-49
2021/08/23 00:09:08;;;;;;;13.32;11.48;;;23.30;82.70;;;;;;1893876;75;21002;-48
2021/08/23 00:11:37;;;;;;;14.63;11.12;;;23.20;82.80;;;;;;1894000;76;21022;-45
2021/08/23 00:14:06;;;;;;;15.32;12.40;;;23.20;82.70;;;;;;1893901;76;21026;-48
2021/08/23 00:16:36;;;;;;;14.65;11.03;;;23.20;82.90;;;;;;1893900;76;21088;-46
2021/08/23 00:19:07;;;;;;;16.75;11.85;;;23.10;83.10;;;;;;1894014;76;21109;-49
2021/08/23 00:21:49;;;;;;;16.32;12.28;;;23.10;83.40;;;;;;1894121;76;21026;-50
2021/08/23 00:24:21;;;;;;;21.65;13.43;;;23.20;83.40;;;;;;1889508;75;21445;-47
2021/08/23 00:26:39;;;;;;;17.98;13.00;;;23.20;83.30;;;;;;1892455;75;21073;-47
2021/08/23 00:29:08;;;;;;;17.02;12.55;;;23.20;82.90;;;;;;1894007;76;21092;-45
2021/08/23 00:31:38;;;;;;;12.50;10.68;;;23.20;82.80;;;;;;1893997;76;21022;-48
2021/08/23 00:34:07;;;;;;;15.95;12.28;;;23.10;82.90;;;;;;1894021;75;21080;-49
2021/08/23 00:36:37;;;;;;;13.25;11.12;;;23.10;83.10;;;;;;1893989;76;21026;-48
2021/08/23 00:39:08;;;;;;;16.27;12.07;;;23.10;83.20;;;;;;1894012;76;21116;-49
2021/08/23 00:41:38;;;;;;;15.60;11.78;;;23.10;83.30;;;;;;1894079;76;21034;-49
2021/08/23 00:44:09;;;;;;;16.32;12.20;;;23.10;83.30;;;;;;1893507;75;21077;-46
2021/08/23 00:46:38;;;;;;;15.45;12.28;;;23.10;83.20;;;;;;1894045;76;21100;-45
2021/08/23 00:49:08;;;;;;;13.08;11.45;;;23.10;83.20;;;;;;1890876;76;21113;-47
2021/08/23 00:51:37;;;;;;;15.05;10.98;;;23.00;83.40;;;;;;1872494;75;21129;-47
2021/08/23 00:54:07;;;;;;;15.35;11.25;;;23.00;83.50;;;;;;1872492;77;21007;-46
2021/08/23 00:56:36;;;;;;;14.70;10.72;;;23.00;83.50;;;;;;1872571;77;21030;-48
2021/08/23 00:59:08;;;;;;;16.37;11.45;;;23.00;83.60;;;;;;1872432;77;21081;-46
2021/08/23 01:01:54;;;;;;;13.48;11.45;;;23.10;83.60;;;;;;1872712;76;21085;-49
2021/08/23 01:04:49;;;;;;;13.18;11.63;;;23.10;83.60;;;;;;1872420;76;21027;-50
2021/08/23 01:07:22;;;;;;;17.05;11.38;;;23.00;83.50;;;;;;1872561;77;21027;-49
2021/08/23 01:09:54;;;;;;;14.35;11.40;;;23.00;83.50;;;;;;1872543;77;21481;-49
2021/08/23 01:12:25;;;;;;;15.18;11.83;;;23.00;83.60;;;;;;1860362;75;21550;-48
2021/08/23 01:14:55;;;;;;;14.33;11.35;;;23.00;83.50;;;;;;1872538;76;21066;-47
2021/08/23 01:17:24;;;;;;;15.83;11.93;;;23.00;83.60;;;;;;1872479;76;21081;-47
2021/08/23 01:19:56;;;;;;;14.85;11.80;;;23.00;83.50;;;;;;1872540;77;21047;-46
2021/08/23 01:22:27;;;;;;;15.72;12.05;;;23.00;83.50;;;;;;1872338;75;21054;-50
2021/08/23 01:24:58;;;;;;;15.18;11.33;;;23.00;83.50;;;;;;1872581;77;21027;-48
2021/08/23 01:27:29;;;;;;;13.95;12.03;;;23.00;83.50;;;;;;1872474;77;21054;-46
2021/08/23 01:30:10;;;;;;;14.90;12.65;;;23.00;83.30;;;;;;1872653;77;21000;-50
2021/08/23 01:32:41;;;;;;;14.03;11.43;;;23.00;83.00;;;;;;1872474;76;21051;-47
2021/08/23 01:35:10;;;;;;;15.32;11.85;;;23.00;83.10;;;;;;1872602;77;21031;-46
2021/08/23 01:37:40;;;;;;;15.20;11.85;;;22.90;83.30;;;;;;1872561;77;21098;-49
2021/08/23 01:40:10;;;;;;;19.80;12.53;;;22.90;83.20;;;;;;1872509;77;21080;-49
2021/08/23 01:42:40;;;;;;;13.08;10.88;;;22.90;83.10;;;;;;1872526;77;21558;-48
2021/08/23 01:45:10;;;;;;;14.85;11.05;;;22.80;83.80;;;;;;1872551;77;20999;-48
2021/08/23 01:47:39;;;;;;;14.47;12.07;;;22.80;83.40;;;;;;1872630;77;21188;-48
2021/08/23 01:50:10;;;;;;;15.75;12.37;;;22.80;83.40;;;;;;1879355;76;21135;-46
2021/08/23 01:52:39;;;;;;;15.05;12.75;;;22.80;83.40;;;;;;1894157;76;21100;-50
2021/08/23 01:55:09;;;;;;;16.23;12.93;;;22.70;83.30;;;;;;1894065;76;21026;-46
2021/08/23 01:57:38;;;;;;;16.37;12.23;;;22.70;83.30;;;;;;1894051;76;21022;-48
2021/08/23 02:00:08;;;;;;;17.07;12.75;;;22.60;83.40;;;;;;1894080;76;21022;-48
2021/08/23 02:02:38;;;;;;;15.72;11.95;;;22.70;83.70;;;;;;1894094;76;21026;-49
2021/08/23 02:05:08;;;;;;;18.73;12.68;;;22.70;83.90;;;;;;1894056;76;21026;-47
2021/08/23 02:07:37;;;;;;;17.30;12.40;;;22.70;84.10;;;;;;1894063;74;21027;-48
2021/08/23 02:10:07;;;;;;;16.73;12.70;;;22.70;84.20;;;;;;1894080;76;21038;-48
2021/08/23 02:12:36;;;;;;;15.80;11.53;;;22.80;84.10;;;;;;1894184;75;21020;-49
2021/08/23 02:15:06;;;;;;;18.35;12.73;;;22.80;84.10;;;;;;1894177;76;21546;-49
2021/08/23 02:17:36;;;;;;;19.55;13.62;;;22.80;84.00;;;;;;1894060;76;21018;-49
2021/08/23 02:20:13;;;;;;;15.95;13.25;;;22.80;84.00;;;;;;1894037;76;21066;-49
2021/08/23 02:22:42;;;;;;;18.52;13.45;;;22.80;84.00;;;;;;1894225;76;21104;-49
2021/08/23 02:25:12;;;;;;;20.02;13.53;;;22.90;84.10;;;;;;1894060;75;21026;-49
2021/08/23 02:27:41;;;;;;;14.93;13.30;;;22.90;84.00;;;;;;1894195;76;21096;-48
2021/08/23 02:30:11;;;;;;;16.45;13.68;;;22.90;83.90;;;;;;1894087;76;21046;-47
2021/08/23 02:32:40;;;;;;;15.65;13.38;;;22.80;83.90;;;;;;1894001;76;21018;-49
2021/08/23 02:35:10;;;;;;;17.35;12.82;;;22.80;84.20;;;;;;1894189;75;21429;-47
2021/08/23 02:37:39;;;;;;;18.80;14.70;;;22.80;84.40;;;;;;1894172;76;21033;-49
2021/08/23 02:40:10;;;;;;;16.90;13.08;;;22.80;84.40;;;;;;1894060;76;21026;-50
2021/08/23 02:42:39;;;;;;;18.37;13.45;;;22.80;84.30;;;;;;1893987;76;21022;-48
2021/08/23 02:45:09;;;;;;;21.05;13.75;;;22.80;84.20;;;;;;1893917;76;21018;-49
2021/08/23 02:47:39;;;;;;;17.00;13.48;;;22.80;84.20;;;;;;1893930;75;21107;-48
2021/08/23 02:50:10;;;;;;;16.40;12.55;;;22.80;84.30;;;;;;1893064;75;21010;-49
2021/08/23 02:52:39;;;;;;;17.82;12.58;;;22.80;84.30;;;;;;1872547;75;20996;-49
2021/08/23 02:55:09;;;;;;;16.37;13.38;;;22.80;84.40;;;;;;1872437;77;21144;-48
2021/08/23 02:57:39;;;;;;;27.10;13.80;;;22.80;84.40;;;;;;1872408;77;21023;-48
2021/08/23 03:00:10;;;;;;;18.70;13.38;;;22.80;84.40;;;;;;1872405;76;21023;-45
2021/08/23 03:02:39;;;;;;;19.75;13.35;;;22.80;84.40;;;;;;1872444;77;21092;-48
2021/08/23 03:05:08;;;;;;;19.82;12.95;;;22.80;84.50;;;;;;1872494;77;21414;-48
2021/08/23 03:07:38;;;;;;;19.27;12.43;;;22.80;84.50;;;;;;1872565;77;21035;-49
2021/08/23 03:10:08;;;;;;;14.53;12.75;;;22.80;84.60;;;;;;1872399;77;21081;-48
2021/08/23 03:12:37;;;;;;;17.17;13.88;;;22.80;84.70;;;;;;1872494;77;21023;-46
2021/08/23 03:15:07;;;;;;;23.62;13.72;;;22.80;84.50;;;;;;1872432;77;21061;-46
2021/08/23 03:17:36;;;;;;;17.52;12.73;;;22.90;84.40;;;;;;1872526;77;21097;-49
2021/08/23 03:20:07;;;;;;;18.15;12.50;;;22.90;84.30;;;;;;1872437;77;21106;-46
2021/08/23 03:22:36;;;;;;;18.07;13.55;;;22.90;84.30;;;;;;1872491;77;21090;-46
2021/08/23 03:25:06;;;;;;;20.23;14.07;;;22.80;84.30;;;;;;1872407;77;21034;-49
2021/08/23 03:27:35;;;;;;;20.37;13.13;;;22.90;84.40;;;;;;1872564;76;21079;-49
2021/08/23 03:30:05;;;;;;;15.53;11.68;;;22.80;84.30;;;;;;1872437;77;21015;-45
2021/08/23 03:32:35;;;;;;;16.42;12.95;;;22.90;84.20;;;;;;1872443;77;21084;-48
2021/08/23 03:35:05;;;;;;;16.25;13.35;;;22.90;84.20;;;;;;1872399;77;21023;-46
2021/08/23 03:37:34;;;;;;;18.77;12.80;;;22.90;84.30;;;;;;1872392;77;21019;-48
2021/08/23 03:40:04;;;;;;;17.05;12.98;;;22.90;84.40;;;;;;1872384;77;21027;-48
2021/08/23 03:42:33;;;;;;;16.73;13.38;;;22.90;84.40;;;;;;1872511;77;21050;-47
2021/08/23 03:45:03;;;;;;;18.60;13.08;;;22.90;84.30;;;;;;1872519;77;21081;-47
2021/08/23 03:47:32;;;;;;;19.32;13.38;;;23.00;84.40;;;;;;1872486;76;21023;-49
2021/08/23 03:50:01;;;;;;;17.57;12.55;;;23.00;84.40;;;;;;1872491;76;21110;-48
2021/08/23 03:52:31;;;;;;;20.12;12.78;;;23.00;84.40;;;;;;1887993;74;21120;-48
2021/08/23 03:55:00;;;;;;;18.48;12.40;;;23.00;84.20;;;;;;1894100;76;21065;-49
2021/08/23 03:57:32;;;;;;;22.10;12.00;;;23.10;83.80;;;;;;1894000;74;21083;-49
2021/08/23 04:00:01;;;;;;;19.37;12.58;;;23.10;83.80;;;;;;1894127;76;21030;-48
2021/08/23 04:02:32;;;;;;;19.42;12.93;;;23.00;83.90;;;;;;1894015;75;21176;-49
2021/08/23 04:05:02;;;;;;;19.00;12.95;;;23.00;84.70;;;;;;1894011;76;21168;-49
2021/08/23 04:07:32;;;;;;;16.02;13.03;;;23.10;84.20;;;;;;1894040;76;21030;-49
2021/08/23 04:10:01;;;;;;;22.60;14.07;;;23.10;84.10;;;;;;1894087;76;21022;-47
2021/08/23 04:12:31;;;;;;;20.82;14.00;;;23.20;84.00;;;;;;1894279;76;21006;-48
2021/08/23 04:15:01;;;;;;;14.95;12.53;;;23.20;83.90;;;;;;1893993;75;21018;-48
2021/08/23 04:17:31;;;;;;;17.02;13.15;;;23.30;83.80;;;;;;1893815;75;21030;-48
2021/08/23 04:20:02;;;;;;;16.70;12.37;;;23.30;83.60;;;;;;1893972;76;21069;-46
2021/08/23 04:22:31;;;;;;;16.32;12.88;;;23.40;83.30;;;;;;1893851;75;21046;-47
2021/08/23 04:25:01;;;;;;;18.82;13.53;;;23.40;83.00;;;;;;1894056;76;21051;-47
2021/08/23 04:27:30;;;;;;;20.65;14.55;;;23.40;82.90;;;;;;1893969;76;21026;-49
2021/08/23 04:29:59;;;;;;;25.43;15.95;;;23.50;82.90;;;;;;1893985;75;21088;-49
2021/08/23 04:32:29;;;;;;;23.15;14.78;;;23.50;82.70;;;;;;1893940;76;21030;-49
2021/08/23 04:34:58;;;;;;;30.72;15.58;;;23.60;82.40;;;;;;1894076;76;21096;-48
2021/08/23 04:37:28;;;;;;;27.73;16.42;;;23.60;82.20;;;;;;1893987;75;21084;-48
2021/08/23 04:39:58;;;;;;;29.90;16.95;;;23.60;82.20;;;;;;1894090;75;21085;-47
2021/08/23 04:42:27;;;;;;;22.20;15.95;;;23.60;82.20;;;;;;1894064;76;21084;-48
2021/08/23 04:44:56;;;;;;;28.35;18.35;;;23.60;82.00;;;;;;1893966;75;21069;-49
2021/08/23 04:47:26;;;;;;;27.42;16.07;;;23.70;82.00;;;;;;1893971;75;21084;-49
2021/08/23 04:49:55;;;;;;;19.70;14.43;;;23.70;82.00;;;;;;1894050;76;21003;-46
2021/08/23 04:52:25;;;;;;;23.38;18.40;;;23.80;81.90;;;;;;1893902;75;21046;-45
2021/08/23 04:54:56;;;;;;;24.40;18.17;;;23.80;81.80;;;;;;1894126;76;21108;-48
2021/08/23 04:57:26;;;;;;;25.23;17.65;;;23.80;81.70;;;;;;1894062;75;21103;-46
2021/08/23 04:59:55;;;;;;;19.45;16.12;;;23.80;81.90;;;;;;1894050;76;21116;-49
2021/08/23 05:02:25;;;;;;;24.43;15.80;;;23.80;81.80;;;;;;1894048;76;21096;-47
2021/08/23 05:04:54;;;;;;;27.40;15.75;;;23.90;81.80;;;;;;1893992;76;21026;-49
2021/08/23 05:07:24;;;;;;;24.80;15.32;;;24.00;81.70;;;;;;1894053;76;21030;-48
2021/08/23 05:09:54;;;;;;;21.48;19.17;;;24.00;81.50;;;;;;1894133;76;21030;-46
2021/08/23 05:12:23;;;;;;;21.00;15.63;;;24.10;81.40;;;;;;1893972;76;21026;-47
2021/08/23 05:14:53;;;;;;;16.90;14.95;;;24.20;81.00;;;;;;1894010;75;21026;-47
2021/08/23 05:17:22;;;;;;;19.42;15.15;;;24.20;81.00;;;;;;1893942;76;21022;-48
2021/08/23 05:19:52;;;;;;;17.40;14.53;;;24.20;80.90;;;;;;1893998;76;21010;-47
2021/08/23 05:22:22;;;;;;;18.75;15.10;;;24.30;80.70;;;;;;1893851;76;21018;-48
2021/08/23 05:24:52;;;;;;;20.90;14.38;;;24.30;80.50;;;;;;1893977;76;21030;-49
2021/08/23 05:27:21;;;;;;;18.12;14.13;;;24.40;80.70;;;;;;1893911;75;21022;-47
2021/08/23 05:29:51;;;;;;;18.37;14.50;;;24.50;80.60;;;;;;1893970;76;21116;-50
2021/08/23 05:32:20;;;;;;;21.05;13.78;;;24.50;80.50;;;;;;1894018;76;21100;-47
2021/08/23 05:34:49;;;;;;;20.20;14.35;;;24.60;80.30;;;;;;1893967;76;21026;-49
2021/08/23 05:37:20;;;;;;;18.25;15.00;;;24.60;80.00;;;;;;1893994;75;21046;-47
2021/08/23 05:39:50;;;;;;;20.52;14.38;;;24.70;79.80;;;;;;1893862;76;21072;-50
2021/08/23 05:42:20;;;;;;;14.23;12.70;;;24.70;79.70;;;;;;1893999;76;21026;-48
2021/08/23 05:44:50;;;;;;;20.85;15.18;;;24.80;79.90;;;;;;1893906;76;21101;-49
2021/08/23 05:47:20;;;;;;;19.05;12.37;;;24.90;79.70;;;;;;1893892;76;21488;-46
2021/08/23 05:49:49;;;;;;;15.00;11.53;;;24.90;79.40;;;;;;1894013;75;21092;-49
2021/08/23 05:52:19;;;;;;;17.75;13.95;;;25.00;79.10;;;;;;1889959;76;21063;-46
2021/08/23 05:54:49;;;;;;;17.10;11.53;;;25.10;79.00;;;;;;1872382;77;21007;-48
2021/08/23 05:57:19;;;;;;;17.73;11.83;;;25.30;78.90;;;;;;1872471;77;21093;-49
2021/08/23 05:59:49;;;;;;;16.30;10.72;;;25.40;78.60;;;;;;1872558;77;21018;-48
2021/08/23 06:02:19;;;;;;;22.25;11.63;;;25.50;78.10;;;;;;1872487;77;21552;-45
2021/08/23 06:04:48;;;;;;;21.70;14.25;;;25.60;77.80;;;;;;1872501;77;21100;-45
2021/08/23 06:07:18;;;;;;;24.10;11.78;;;25.70;77.50;;;;;;1872383;77;21031;-49
2021/08/23 06:09:48;;;;;;;12.90;10.08;;;25.80;77.00;;;;;;1872468;76;21043;-48
2021/08/23 06:12:18;;;;;;;17.92;12.47;;;25.80;76.50;;;;;;1872425;77;21074;-48
2021/08/23 06:14:47;;;;;;;15.40;11.50;;;25.80;76.40;;;;;;1872557;77;21140;-49
2021/08/23 06:17:16;;;;;;;16.20;10.50;;;25.80;75.90;;;;;;1872513;77;21026;-46
2021/08/23 06:19:46;;;;;;;16.93;10.80;;;25.70;76.20;;;;;;1872512;77;21089;-46
2021/08/23 06:22:15;;;;;;;17.98;10.65;;;25.60;76.20;;;;;;1872533;77;21104;-50
2021/08/23 06:24:45;;;;;;;17.05;10.68;;;25.60;76.40;;;;;;1872412;76;21031;-49
2021/08/23 06:27:14;;;;;;;16.90;11.28;;;25.60;76.40;;;;;;1872437;76;21023;-49
2021/08/23 06:29:43;;;;;;;16.12;10.68;;;25.50;76.40;;;;;;1872473;77;21027;-49
2021/08/23 06:32:13;;;;;;;17.23;10.00;;;25.60;76.60;;;;;;1872515;77;21027;-46
2021/08/23 06:34:42;;;;;;;15.20;11.20;;;25.60;76.50;;;;;;1872398;77;21571;-49
2021/08/23 06:37:12;;;;;;;15.25;9.98;;;25.70;76.40;;;;;;1872381;76;21080;-47
2021/08/23 06:39:41;;;;;;;17.80;11.30;;;25.70;76.40;;;;;;1872584;77;21074;-47
2021/08/23 06:42:11;;;;;;;12.25;9.85;;;25.80;76.10;;;;;;1872312;77;21089;-48
2021/08/23 06:44:40;;;;;;;15.35;8.90;;;25.90;75.70;;;;;;1872521;77;21007;-48
2021/08/23 06:47:10;;;;;;;15.00;9.35;;;26.00;75.30;;;;;;1872409;77;21101;-48
2021/08/23 06:49:39;;;;;;;11.38;9.55;;;26.10;74.80;;;;;;1872276;77;20999;-45
2021/08/23 06:52:09;;;;;;;16.60;10.50;;;26.10;74.80;;;;;;1872245;77;21035;-47
2021/08/23 06:54:38;;;;;;;12.25;9.15;;;26.20;74.60;;;;;;1872723;75;21047;-45
2021/08/23 06:57:08;;;;;;;17.60;10.20;;;26.20;74.60;;;;;;1872359;75;21090;-48
2021/08/23 06:59:37;;;;;;;12.70;9.70;;;26.30;74.50;;;;;;1872382;77;21118;-49
2021/08/23 07:02:07;;;;;;;16.48;9.60;;;26.30;74.20;;;;;;1872261;77;21166;-47
2021/08/23 07:04:36;;;;;;;16.40;9.33;;;26.30;74.20;;;;;;1872464;77;21027;-49
2021/08/23 07:07:08;;;;;;;11.30;7.72;;;26.30;74.10;;;;;;1872059;76;21478;-46
2021/08/23 07:09:37;;;;;;;18.27;8.88;;;26.30;74.20;;;;;;1871461;76;21598;-47
2021/08/23 07:12:07;;;;;;;13.40;9.63;;;26.30;74.00;;;;;;1871357;77;21043;-48
2021/08/23 07:14:39;;;;;;;19.37;10.38;;;26.40;74.10;;;;;;1870942;77;21086;-49
2021/08/23 07:17:09;;;;;;;12.50;10.00;;;26.40;73.70;;;;;;1871113;75;21163;-49
2021/08/23 07:19:38;;;;;;;19.07;9.70;;;26.30;73.90;;;;;;1872321;77;21027;-51
2021/08/23 07:22:07;;;;;;;13.05;8.25;;;26.30;74.20;;;;;;1871199;77;21066;-48
2021/08/23 07:24:37;;;;;;;17.70;7.58;;;26.40;74.50;;;;;;1871650;77;21098;-49
2021/08/23 07:27:06;;;;;;;13.38;7.65;;;26.40;74.30;;;;;;1871698;75;21092;-50
2021/08/23 07:29:37;;;;;;;9.13;7.00;;;26.50;73.70;;;;;;1871550;77;21027;-50
2021/08/23 07:32:08;;;;;;;44.05;10.28;;;26.50;73.40;;;;;;1871807;76;21567;-50
2021/08/23 07:34:37;;;;;;;8.15;7.33;;;26.60;73.00;;;;;;1871920;77;21090;-50
2021/08/23 07:37:07;;;;;;;10.03;7.20;;;26.60;73.10;;;;;;1871385;75;21145;-50
2021/08/23 07:39:36;;;;;;;8.08;6.75;;;26.70;72.30;;;;;;1871733;77;21098;-53
2021/08/23 07:42:05;;;;;;;12.23;9.45;;;26.60;71.10;;;;;;1871611;75;21117;-50
2021/08/23 07:44:35;;;;;;;10.68;6.95;;;26.60;71.60;;;;;;1871630;77;21021;-52
2021/08/23 07:47:05;;;;;;;10.88;8.45;;;26.60;72.20;;;;;;1871818;77;21085;-49
2021/08/23 07:49:34;;;;;;;14.30;8.15;;;26.70;71.60;;;;;;1871674;76;21003;-51
2021/08/23 07:52:04;;;;;;;12.93;8.10;;;26.80;71.20;;;;;;1871612;77;21031;-51
2021/08/23 07:54:35;;;;;;;13.25;8.50;;;26.80;71.20;;;;;;1871884;77;21003;-50
2021/08/23 07:57:06;;;;;;;9.65;7.37;;;26.80;71.60;;;;;;1881877;76;21030;-51
2021/08/23 07:59:35;;;;;;;8.63;7.17;;;26.90;71.30;;;;;;1893227;75;21411;-50
2021/08/23 08:02:04;;;;;;;10.32;7.22;;;27.00;70.90;;;;;;1892755;74;21022;-50
2021/08/23 08:04:34;;;;;;;9.90;6.87;;;27.00;70.30;;;;;;1893352;76;21026;-46
2021/08/23 08:07:03;;;;;;;9.13;7.30;;;27.00;70.00;;;;;;1893350;76;21034;-49
2021/08/23 08:09:33;;;;;;;11.68;7.37;;;27.00;70.30;;;;;;1893439;76;21105;-50
2021/08/23 08:12:02;;;;;;;9.45;7.22;;;27.10;70.00;;;;;;1893244;76;21102;-51
2021/08/23 08:14:32;;;;;;;8.70;6.87;;;27.10;69.40;;;;;;1893179;76;21069;-52
2021/08/23 08:17:01;;;;;;;10.05;8.18;;;27.10;69.50;;;;;;1893300;76;21069;-50
2021/08/23 08:19:31;;;;;;;14.23;9.28;;;27.10;69.60;;;;;;1893320;76;21456;-49
2021/08/23 08:22:05;;;;;;;10.78;8.53;;;27.10;70.00;;;;;;1893249;75;21093;-51
2021/08/23 08:24:31;;;;;;;15.08;8.98;;;27.20;70.70;;;;;;1892970;75;21108;-49
2021/08/23 08:27:00;;;;;;;16.97;9.80;;;27.30;70.10;;;;;;1893211;76;21018;-51
2021/08/23 08:29:30;;;;;;;18.45;13.48;;;27.30;70.00;;;;;;1893163;76;21030;-47
2021/08/23 08:31:59;;;;;;;11.60;9.63;;;27.40;70.30;;;;;;1893254;76;21113;-48
2021/08/23 08:34:30;;;;;;;12.28;8.90;;;27.40;70.30;;;;;;1893164;76;21030;-50
2021/08/23 08:36:59;;;;;;;10.50;9.15;;;27.40;70.40;;;;;;1893173;76;21096;-48
2021/08/23 08:39:28;;;;;;;15.80;9.30;;;27.50;69.70;;;;;;1893385;76;21073;-50
2021/08/23 08:41:58;;;;;;;9.78;8.78;;;27.50;69.60;;;;;;1893314;74;21159;-50
2021/08/23 08:44:28;;;;;;;11.03;8.33;;;27.60;70.00;;;;;;1893190;76;21179;-47
2021/08/23 08:46:57;;;;;;;9.58;7.72;;;27.60;68.70;;;;;;1892699;74;21156;-50
2021/08/23 08:49:29;;;;;;;13.38;8.45;;;27.60;68.30;;;;;;1893122;75;21179;-47
2021/08/23 08:51:59;;;;;;;11.97;8.38;;;27.50;68.20;;;;;;1892995;76;21081;-48
2021/08/23 08:54:28;;;;;;;10.98;9.50;;;27.50;68.50;;;;;;1892999;76;21069;-48
2021/08/23 08:56:59;;;;;;;10.38;8.83;;;27.40;68.80;;;;;;1893198;75;21109;-49
2021/08/23 08:59:30;;;;;;;10.95;8.23;;;27.50;69.00;;;;;;1893510;75;21093;-49
2021/08/23 09:01:59;;;;;;;15.63;10.10;;;27.60;68.60;;;;;;1893297;76;21092;-52
2021/08/23 09:04:35;;;;;;;11.48;7.83;;;27.60;68.40;;;;;;1893305;75;21038;-47
2021/08/23 09:07:06;;;;;;;22.30;10.28;;;27.60;67.90;;;;;;1893431;76;21084;-49
2021/08/23 09:09:36;;;;;;;12.78;9.03;;;27.80;68.20;;;;;;1893404;76;21026;-52
2021/08/23 09:12:14;;;;;;;12.50;8.83;;;27.90;67.80;;;;;;1893540;76;21088;-50
2021/08/23 09:14:54;;;;;;;19.10;9.88;;;28.00;68.00;;;;;;1893380;76;21068;-49
2021/08/23 09:17:27;;;;;;;13.00;9.60;;;28.00;67.20;;;;;;1893488;76;21113;-51
2021/08/23 09:20:07;;;;;;;11.53;9.35;;;28.10;67.80;;;;;;1893337;75;21143;-48
2021/08/23 09:22:37;;;;;;;14.20;9.13;;;28.10;67.30;;;;;;1893325;76;21069;-49
2021/08/23 09:25:11;;;;;;;10.68;8.98;;;28.10;67.60;;;;;;1893396;76;21091;-48
2021/08/23 09:27:40;;;;;;;12.43;10.40;;;28.10;67.00;;;;;;1893603;76;21006;-52
2021/08/23 09:30:11;;;;;;;15.50;11.33;;;28.00;66.50;;;;;;1893578;76;21022;-52
2021/08/23 09:32:51;;;;;;;13.38;10.18;;;28.00;67.30;;;;;;1893632;74;21080;-51
2021/08/23 09:35:38;;;;;;;15.28;10.08;;;28.00;67.30;;;;;;1893374;76;21100;-51
2021/08/23 09:38:17;;;;;;;11.25;9.90;;;28.10;67.00;;;;;;1893580;76;21081;-52
2021/08/23 09:40:44;;;;;;;12.07;9.90;;;28.20;67.50;;;;;;1893370;75;21092;-49
2021/08/23 09:43:16;;;;;;;18.10;9.90;;;28.30;67.60;;;;;;1893237;75;21042;-49
2021/08/23 09:45:47;;;;;;;12.73;9.33;;;28.30;66.80;;;;;;1893398;76;21147;-49
2021/08/23 09:48:18;;;;;;;13.32;9.73;;;28.40;66.70;;;;;;1893465;75;21054;-52
2021/08/23 09:50:49;;;;;;;12.00;10.43;;;28.40;65.90;;;;;;1893401;76;21077;-48
2021/08/23 09:53:23;;;;;;;17.10;10.00;;;28.40;65.90;;;;;;1893211;75;21097;-48
2021/08/23 09:55:53;;;;;;;15.35;9.05;;;28.40;66.00;;;;;;1893702;75;21127;-45
2021/08/23 09:58:23;;;;;;;10.78;9.15;;;28.40;65.90;;;;;;1893358;75;21097;-47
2021/08/23 10:00:55;;;;;;;11.15;9.68;;;28.50;65.70;;;;;;1893430;74;21042;-47
2021/08/23 10:03:26;;;;;;;11.45;9.15;;;28.40;65.40;;;;;;1893621;75;21042;-48
2021/08/23 10:05:55;;;;;;;11.05;9.40;;;28.40;64.70;;;;;;1894072;76;21156;-49
2021/08/23 10:08:26;;;;;;;13.95;9.08;;;28.50;63.20;;;;;;1894206;76;21061;-50
2021/08/23 10:10:55;;;;;;;9.95;8.53;;;28.50;63.50;;;;;;1894451;76;21026;-48
2021/08/23 10:13:25;;;;;;;9.75;8.48;;;28.70;63.10;;;;;;1894365;76;21113;-47
2021/08/23 10:15:54;;;;;;;19.80;9.15;;;28.80;61.90;;;;;;1894091;76;21026;-50
2021/08/23 10:18:24;;;;;;;12.33;8.98;;;28.90;60.60;;;;;;1894112;76;21034;-50
2021/08/23 10:20:53;;;;;;;12.75;9.28;;;28.90;61.10;;;;;;1893949;76;21124;-49
2021/08/23 10:23:23;;;;;;;12.68;9.35;;;29.00;60.70;;;;;;1894015;76;21088;-49
2021/08/23 10:25:52;;;;;;;10.35;8.18;;;29.10;60.20;;;;;;1893952;76;21030;-49
2021/08/23 10:28:24;;;;;;;11.28;9.05;;;29.10;59.60;;;;;;1894129;76;21104;-49
2021/08/23 10:30:53;;;;;;;13.28;8.85;;;29.10;59.70;;;;;;1894071;76;21530;-50
2021/08/23 10:33:23;;;;;;;10.25;8.93;;;29.00;58.90;;;;;;1894228;76;21053;-51
2021/08/23 10:35:57;;;;;;;9.83;8.18;;;29.10;58.80;;;;;;1894185;76;21022;-52
2021/08/23 10:38:26;;;;;;;11.88;9.60;;;29.10;59.00;;;;;;1894206;75;21078;-52
2021/08/23 10:41:16;;;;;;;10.00;8.15;;;29.20;59.10;;;;;;1894173;76;21080;-48
2021/08/23 10:43:51;;;;;;;7.28;6.55;;;29.20;58.50;;;;;;1894241;76;21092;-52
2021/08/23 10:46:25;;;;;;;11.65;9.10;;;29.20;57.30;;;;;;1893430;75;21050;-51
2021/08/23 10:48:57;;;;;;;14.05;8.85;;;29.10;57.50;;;;;;1894153;76;21034;-49
2021/08/23 10:51:38;;;;;;;8.45;7.65;;;29.20;57.20;;;;;;1894115;76;21054;-52
2021/08/23 10:54:37;;;;;;;8.13;6.95;;;29.20;56.40;;;;;;1894165;74;21091;-52
2021/08/23 10:57:12;;;;;;;18.87;14.80;;;29.20;56.70;;;;;;1894233;75;20990;-53
2021/08/23 10:59:44;;;;;;;;;;;29.30;56.70;;;;;;1896730;76;21038;-52
2021/08/23 11:02:16;;;;;;;9.13;7.03;;;29.40;56.00;;;;;;1894131;74;20098;-52
2021/08/23 11:05:08;;;;;;;8.10;6.35;;;29.40;55.20;;;;;;1894017;76;21026;-52
2021/08/23 11:07:40;;;;;;;13.75;6.37;;;29.40;55.80;;;;;;1894133;76;20998;-53
2021/08/23 11:10:20;;;;;;;6.97;5.70;;;29.40;55.90;;;;;;1894325;76;21143;-52
2021/08/23 11:12:52;;;;;;;7.12;6.42;;;29.50;54.70;;;;;;1893925;75;21030;-53
2021/08/23 11:15:27;;;;;;;8.70;5.85;;;29.40;53.90;;;;;;1894154;76;21038;-52
2021/08/23 11:18:02;;;;;;;8.05;5.83;;;29.40;54.90;;;;;;1894101;76;21002;-53
2021/08/23 11:20:33;;;;;;;6.92;5.70;;;29.40;54.40;;;;;;1894104;76;21022;-53
2021/08/23 11:23:05;;;;;;;7.45;5.75;;;29.50;53.30;;;;;;1894232;76;21555;-52
2021/08/23 11:25:43;;;;;;;6.28;5.65;;;29.50;53.30;;;;;;1893992;76;21030;-53
2021/08/23 11:28:15;;;;;;;8.55;5.95;;;29.50;53.60;;;;;;1894012;76;21023;-53
2021/08/23 11:30:54;;;;;;;7.70;5.47;;;29.60;53.90;;;;;;1893993;76;21018;-50
2021/08/23 11:33:34;;;;;;;12.55;6.25;;;29.60;53.40;;;;;;1894055;76;21042;-52
2021/08/23 11:36:06;;;;;;;6.75;5.12;;;29.60;53.60;;;;;;1894159;75;21080;-53
2021/08/23 11:38:38;;;;;;;8.68;5.40;;;29.70;52.70;;;;;;1893848;75;21088;-52
2021/08/23 11:41:09;;;;;;;6.20;5.37;;;29.70;52.70;;;;;;1893980;76;21081;-53
2021/08/23 11:43:39;;;;;;;6.05;5.45;;;29.60;52.20;;;;;;1894091;76;21010;-52
2021/08/23 11:46:08;;;;;;;5.45;4.87;;;29.70;53.10;;;;;;1893887;76;21006;-53
2021/08/23 11:48:38;;;;;;;7.08;5.20;;;29.70;53.10;;;;;;1893912;75;21038;-52
2021/08/23 11:51:07;;;;;;;7.80;5.67;;;29.80;52.30;;;;;;1893909;76;21026;-50
2021/08/23 11:53:37;;;;;;;6.75;5.17;;;29.80;52.50;;;;;;1893975;75;21534;-50
2021/08/23 11:56:08;;;;;;;6.40;5.45;;;29.70;52.00;;;;;;1893943;74;21034;-51
2021/08/23 11:58:40;;;;;;;7.37;5.08;;;29.70;52.30;;;;;;1890940;76;21197;-51
2021/08/23 12:01:11;;;;;;;11.00;5.20;;;29.70;52.60;;;;;;1872551;76;21026;-49
2021/08/23 12:03:40;;;;;;;8.65;5.55;;;29.70;51.90;;;;;;1872472;76;21051;-51
2021/08/23 12:06:12;;;;;;;6.20;5.60;;;29.70;52.40;;;;;;1872379;77;21058;-50
2021/08/23 12:08:42;;;;;;;6.80;5.58;;;29.80;52.20;;;;;;1872585;77;21077;-50
2021/08/23 12:11:14;;;;;;;7.35;5.12;;;29.80;52.20;;;;;;1872395;77;21100;-51
2021/08/23 12:13:48;;;;;;;6.78;5.22;;;29.70;51.20;;;;;;1872339;76;21105;-50
2021/08/23 12:16:23;;;;;;;7.22;5.58;;;29.70;51.00;;;;;;1872761;77;21019;-51
2021/08/23 12:18:53;;;;;;;8.68;4.87;;;29.70;52.00;;;;;;1870280;76;21050;-51
2021/08/23 12:21:31;;;;;;;8.65;4.50;;;29.70;50.80;;;;;;1872498;77;21007;-51
2021/08/23 12:24:05;;;;;;;10.93;5.83;;;29.80;51.30;;;;;;1872648;77;21477;-49
2021/08/23 12:26:40;;;;;;;7.25;4.95;;;29.80;52.00;;;;;;1872606;75;21094;-52
2021/08/23 12:29:16;;;;;;;6.55;5.30;;;29.90;51.70;;;;;;1871452;76;21520;-52
2021/08/23 12:31:56;;;;;;;7.17;4.90;;;29.90;51.90;;;;;;1872611;77;21117;-52
2021/08/23 12:34:31;;;;;;;5.95;4.70;;;29.90;51.30;;;;;;1872627;77;21089;-52
2021/08/23 12:37:02;;;;;;;9.55;5.10;;;30.00;51.40;;;;;;1872612;77;21070;-50
2021/08/23 12:39:32;;;;;;;6.72;4.67;;;29.90;51.20;;;;;;1872629;77;21003;-51
2021/08/23 12:42:06;;;;;;;9.88;5.00;;;30.00;50.80;;;;;;1872712;76;21031;-52
2021/08/23 12:44:34;;;;;;;;;;;30.00;50.80;;;;;;1875321;76;21019;-52
2021/08/23 12:47:04;;;;;;;7.40;5.03;;;30.00;50.10;;;;;;1872583;77;20096;-51
2021/08/23 12:49:34;;;;;;;5.40;4.60;;;30.00;51.30;;;;;;1872501;76;21003;-52
2021/08/23 12:52:03;;;;;;;6.72;4.58;;;30.00;51.10;;;;;;1872553;77;21139;-52